Time;durP1;ratioP1;P1;durP2;ratioP2;P2;SDS_P1;SDS_P2;PMS_P1;PMS_P2;Temp;Humidity;BMP_temperature;BMP_pressure;BME280_temperature;BME280_humidity;BME280_pressure;Samples;Min_cycle;Max_cycle;Signal;HPM_P1;HPM_P2
2023/08/06 00:04:15;;;;;;;9.95;5.55;;;;;;;19.32;76.79;101063.22;10506131;28;20053;-77
2023/08/06 00:09:17;;;;;;;9.38;5.70;;;;;;;19.24;77.20;101061.25;10518376;28;20064;-77
2023/08/06 00:14:19;;;;;;;7.50;5.35;;;;;;;19.19;77.79;101075.34;10498869;28;20056;-77
2023/08/06 00:19:22;;;;;;;8.35;5.57;;;;;;;19.25;77.54;101074.03;10524626;28;20056;-77
2023/08/06 00:24:24;;;;;;;9.00;6.10;;;;;;;19.22;77.40;101074.69;10528388;28;20063;-76
2023/08/06 00:29:31;;;;;;;11.73;6.28;;;;;;;19.16;77.26;101079.63;10493026;28;20458;-77
2023/08/06 00:34:34;;;;;;;9.50;5.53;;;;;;;19.14;77.88;101075.53;10505538;28;20044;-77
2023/08/06 00:39:37;;;;;;;7.75;5.85;;;;;;;19.14;77.85;101073.56;10528526;28;20047;-78
2023/08/06 00:44:39;;;;;;;12.50;5.95;;;;;;;19.17;77.79;101067.34;10512348;28;20067;-77
2023/08/06 00:49:43;;;;;;;10.10;6.40;;;;;;;19.18;77.33;101068.16;10497681;28;20040;-76
2023/08/06 00:54:45;;;;;;;11.15;7.07;;;;;;;19.09;78.35;101064.53;10472237;28;20099;-78
2023/08/06 00:59:47;;;;;;;9.27;6.13;;;;;;;19.12;77.85;101064.72;10483175;28;20502;-77
2023/08/06 01:04:50;;;;;;;11.05;5.53;;;;;;;19.19;77.78;101067.81;10509069;28;20041;-77
2023/08/06 01:10:14;;;;;;;9.98;5.53;;;;;;;19.14;76.87;101051.31;10517086;28;20387;-77
2023/08/06 01:15:24;;;;;;;9.40;5.20;;;;;;;19.09;77.70;101039.50;10525881;28;20060;-76
2023/08/06 01:20:32;;;;;;;6.20;4.43;;;;;;;19.20;76.14;101026.91;10509949;28;20060;-77
2023/08/06 01:25:58;;;;;;;7.50;5.20;;;;;;;19.17;76.40;101042.28;10498922;28;20037;-77
2023/08/06 01:31:02;;;;;;;11.02;5.32;;;;;;;19.08;77.09;101035.09;10497825;28;20049;-77
2023/08/06 01:36:06;;;;;;;5.07;4.55;;;;;;;19.14;77.09;101039.38;10511632;28;20091;-77
2023/08/06 01:41:08;;;;;;;9.75;4.72;;;;;;;19.20;76.35;101032.47;10513168;28;20045;-77
2023/08/06 01:46:10;;;;;;;8.43;5.13;;;;;;;19.05;77.21;101035.75;10529489;28;20403;-77
2023/08/06 01:51:13;;;;;;;5.40;4.20;;;;;;;18.98;76.80;101020.41;10507547;28;20059;-77
2023/08/06 01:56:15;;;;;;;5.75;4.30;;;;;;;18.89;77.50;101032.66;10527106;28;20060;-77
2023/08/06 02:01:17;;;;;;;7.50;4.55;;;;;;;18.80;78.10;101029.06;10505654;28;20414;-77
2023/08/06 02:06:26;;;;;;;10.02;5.22;;;;;;;18.83;78.18;101018.09;10506986;28;20044;-77
2023/08/06 02:11:28;;;;;;;7.25;5.45;;;;;;;18.68;79.48;101004.69;10503591;28;20056;-77
2023/08/06 02:16:30;;;;;;;7.85;5.25;;;;;;;18.68;79.53;101008.28;10506573;28;20387;-77
2023/08/06 02:21:32;;;;;;;7.22;5.20;;;;;;;18.63;79.76;101013.19;10493344;28;20052;-77
2023/08/06 02:26:40;;;;;;;7.00;4.95;;;;;;;18.68;79.96;101008.28;10523686;28;20507;-76
2023/08/06 02:31:42;;;;;;;;;;;;;;;18.56;80.77;101013.63;10524861;28;20499;-77
2023/08/06 02:36:44;;;;;;;7.40;4.22;;;;;;;18.60;80.64;101011.88;10516371;28;19985;-77
2023/08/06 02:41:46;;;;;;;8.35;5.22;;;;;;;18.51;80.98;101021.31;10525084;28;20036;-77
2023/08/06 02:46:49;;;;;;;8.43;5.20;;;;;;;18.39;82.07;101019.19;10506519;28;20040;-76
2023/08/06 02:51:51;;;;;;;7.45;5.13;;;;;;;18.53;81.17;101024.59;10506420;28;20040;-76
2023/08/06 02:56:54;;;;;;;7.53;5.50;;;;;;;18.49;81.69;101009.72;10501750;28;20049;-77
2023/08/06 03:02:06;;;;;;;7.10;5.55;;;;;;;18.45;81.72;101012.34;10487887;28;20033;-76
2023/08/06 03:07:24;;;;;;;;;;;;;;;18.55;81.94;101023.13;10502861;28;20048;-77
2023/08/06 03:12:31;;;;;;;9.95;5.13;;;;;;;18.50;81.80;101030.81;10503832;28;19920;-76
2023/08/06 03:17:36;;;;;;;8.05;5.40;;;;;;;18.32;83.04;101033.56;10500263;28;20040;-77
2023/08/06 03:22:40;;;;;;;7.55;5.20;;;;;;;18.14;83.62;101033.84;10505677;28;20056;-77
2023/08/06 03:27:43;;;;;;;8.45;4.95;;;;;;;17.89;85.37;101047.31;10466418;28;20414;-77
2023/08/06 03:32:47;;;;;;;6.10;4.88;;;;;;;17.86;86.27;101031.28;10488313;28;20252;-76
2023/08/06 03:37:52;;;;;;;8.70;5.28;;;;;;;18.01;85.28;101035.59;10489937;28;20048;-76
2023/08/06 03:42:55;;;;;;;9.65;5.28;;;;;;;18.08;84.89;101030.41;10474597;28;20051;-77
2023/08/06 03:47:58;;;;;;;8.00;4.78;;;;;;;18.08;84.63;101027.63;10481598;28;20045;-77
2023/08/06 03:53:00;;;;;;;9.60;4.78;;;;;;;18.17;84.40;101022.06;10491351;28;20039;-77
2023/08/06 03:58:04;;;;;;;8.90;4.97;;;;;;;18.26;83.51;101025.72;10484445;28;20056;-77
2023/08/06 04:03:07;;;;;;;8.13;4.53;;;;;;;18.48;82.70;101022.81;10506935;28;20429;-77
2023/08/06 04:08:09;;;;;;;8.40;4.15;;;;;;;18.83;81.67;101023.66;10506961;28;20410;-77
2023/08/06 04:13:12;;;;;;;6.75;4.18;;;;;;;19.01;81.26;101006.97;10501825;28;20096;-77
2023/08/06 04:18:14;;;;;;;9.40;5.82;;;;;;;19.05;80.60;101000.41;10515303;28;20040;-77
2023/08/06 04:23:17;;;;;;;10.60;5.40;;;;;;;18.84;81.05;100991.94;10502723;28;20100;-77
2023/08/06 04:28:20;;;;;;;9.93;5.32;;;;;;;18.66;82.25;100984.75;10521890;28;20036;-77
2023/08/06 04:33:22;;;;;;;9.18;4.93;;;;;;;18.51;83.33;100979.63;10503765;28;20052;-77
2023/08/06 04:38:25;;;;;;;9.68;5.13;;;;;;;18.43;83.63;100977.69;10482954;28;20045;-77
2023/08/06 04:43:33;;;;;;;8.40;5.15;;;;;;;18.49;84.02;100991.09;10476918;28;20049;-77
2023/08/06 04:48:36;;;;;;;6.68;4.68;;;;;;;18.42;83.92;100967.72;10494042;28;20040;-77
2023/08/06 04:53:38;;;;;;;7.68;4.68;;;;;;;18.49;84.10;100993.03;10498731;28;20059;-76
2023/08/06 04:59:05;;;;;;;5.65;4.10;;;;;;;18.38;84.32;100978.63;10512653;28;20043;-77
2023/08/06 05:04:13;;;;;;;4.50;3.72;;;;;;;18.30;82.81;100960.84;10519624;28;20410;-76
2023/08/06 05:09:15;;;;;;;;;;;;;;;18.24;82.66;100964.91;10524867;28;20048;-77
2023/08/06 05:14:18;;;;;;;5.70;1.98;;;;;;;18.47;81.28;100959.22;10523443;28;19927;-76
2023/08/06 05:19:20;;;;;;;4.43;3.10;;;;;;;18.54;80.86;100970.66;10520326;28;20032;-76
2023/08/06 05:24:22;;;;;;;4.07;1.90;;;;;;;18.48;80.47;100970.00;10526370;28;20084;-77
2023/08/06 05:29:26;;;;;;;4.10;1.85;;;;;;;18.84;78.99;100957.75;10527287;28;20044;-77
2023/08/06 05:34:34;;;;;;;3.50;2.38;;;;;;;18.74;78.25;100939.44;10527599;28;20557;-77
2023/08/06 05:39:36;;;;;;;4.28;2.25;;;;;;;19.13;76.78;100926.44;10526366;28;20119;-76
2023/08/06 05:44:38;;;;;;;3.47;1.48;;;;;;;19.14;75.72;100917.78;10520270;28;20554;-77
2023/08/06 05:49:41;;;;;;;4.80;2.70;;;;;;;19.38;74.84;100906.06;10519806;28;20044;-77
2023/08/06 05:54:43;;;;;;;3.38;2.55;;;;;;;19.34;73.89;100910.66;10525224;28;20502;-77
2023/08/06 05:59:45;;;;;;;3.70;2.53;;;;;;;19.51;73.65;100915.34;10518694;28;20040;-77
2023/08/06 06:04:48;;;;;;;2.95;2.00;;;;;;;20.34;69.86;100923.88;10520313;28;20037;-77
2023/08/06 06:09:50;;;;;;;2.97;2.17;;;;;;;22.56;63.05;100914.25;10482824;28;20036;-77
2023/08/06 06:14:57;;;;;;;3.50;2.38;;;;;;;23.08;60.51;100912.47;10519969;28;20041;-76
2023/08/06 06:19:59;;;;;;;4.20;2.35;;;;;;;21.47;65.43;100933.91;10519071;28;20032;-77
2023/08/06 06:25:02;;;;;;;1.00;0.77;;;;;;;21.11;66.74;100937.44;10505381;28;20041;-77
2023/08/06 06:30:05;;;;;;;2.10;1.90;;;;;;;20.92;68.38;100930.41;10520136;28;20047;-77
2023/08/06 06:35:08;;;;;;;5.10;2.40;;;;;;;21.56;66.22;100910.31;10518686;28;20036;-77
2023/08/06 06:40:11;;;;;;;2.17;1.70;;;;;;;22.55;64.16;100912.59;10525615;28;20391;-77
2023/08/06 06:45:13;;;;;;;3.38;2.00;;;;;;;23.01;62.13;100906.69;10522087;28;20052;-77
2023/08/06 06:50:15;;;;;;;1.40;1.30;;;;;;;22.30;64.56;100915.84;10501658;28;20414;-77
2023/08/06 06:55:17;;;;;;;1.77;1.60;;;;;;;22.39;65.08;100908.09;10490482;28;20049;-77
2023/08/06 07:00:20;;;;;;;2.15;1.95;;;;;;;22.81;63.86;100897.34;10525579;28;20494;-77
2023/08/06 07:05:22;;;;;;;2.17;1.70;;;;;;;23.65;62.59;100897.19;10518519;28;20047;-77
2023/08/06 07:10:26;;;;;;;2.22;1.90;;;;;;;25.49;56.86;100910.59;10527901;28;20574;-77
2023/08/06 07:15:28;;;;;;;2.25;1.83;;;;;;;25.54;57.06;100896.25;10514299;28;20079;-77
2023/08/06 07:20:32;;;;;;;1.40;1.30;;;;;;;25.84;55.86;100893.53;10525059;28;20043;-77
2023/08/06 07:25:40;;;;;;;1.52;1.42;;;;;;;25.97;55.77;100888.50;10524880;28;20531;-77
2023/08/06 07:30:43;;;;;;;;;;;;;;;25.89;56.46;100896.03;10521299;28;20040;-77
2023/08/06 07:35:50;;;;;;;1.65;1.30;;;;;;;25.33;57.33;100887.44;10490254;28;19920;-77
2023/08/06 07:40:53;;;;;;;3.53;1.77;;;;;;;25.46;56.62;100880.44;10483807;28;20691;-78
2023/08/06 07:46:20;;;;;;;3.63;1.85;;;;;;;25.48;57.34;100890.13;10529121;28;20059;-80
2023/08/06 07:51:22;;;;;;;3.35;1.80;;;;;;;25.37;57.59;100886.34;10467884;28;20045;-79
2023/08/06 07:56:29;;;;;;;1.88;1.55;;;;;;;25.43;57.75;100889.63;10499693;28;20545;-77
2023/08/06 08:01:32;;;;;;;;;;;;;;;24.42;61.40;100902.13;10498217;28;20055;-78
2023/08/06 08:06:34;;;;;;;2.28;1.60;;;;;;;23.75;63.80;100891.81;10527750;28;20408;-78
2023/08/06 08:11:37;;;;;;;1.90;1.60;;;;;;;23.63;63.76;100899.53;10521040;28;20048;-77
2023/08/06 08:16:42;;;;;;;2.92;1.85;;;;;;;23.38;64.15;100893.25;10485080;28;20442;-76
2023/08/06 08:21:44;;;;;;;2.10;1.90;;;;;;;22.90;65.51;100911.19;10471544;28;20033;-78
2023/08/06 08:26:52;;;;;;;2.00;1.80;;;;;;;22.82;66.61;100899.00;10508612;28;20044;-77
2023/08/06 08:31:55;;;;;;;2.10;1.90;;;;;;;24.52;61.39;100891.16;10491815;28;20037;-77
2023/08/06 08:36:58;;;;;;;1.73;1.63;;;;;;;26.54;56.02;100881.63;10524034;28;20797;-77
2023/08/06 08:42:03;;;;;;;3.55;1.58;;;;;;;27.32;54.79;100870.41;10526376;28;20037;-76
2023/08/06 08:47:08;;;;;;;1.73;1.60;;;;;;;27.69;52.81;100866.69;10528560;28;20040;-76
2023/08/06 08:52:12;;;;;;;1.80;1.70;;;;;;;26.49;55.82;100865.09;10530675;28;20043;-76
2023/08/06 08:57:15;;;;;;;3.40;2.00;;;;;;;27.40;53.66;100865.63;10528611;28;20511;-77
2023/08/06 09:02:25;;;;;;;2.08;1.92;;;;;;;24.98;59.56;100867.94;10532886;28;20044;-77
2023/08/06 09:07:35;;;;;;;2.65;1.92;;;;;;;24.47;61.44;100865.34;10506693;28;20507;-76
2023/08/06 09:12:38;;;;;;;2.28;1.95;;;;;;;24.25;63.20;100861.28;10502978;28;20045;-76
2023/08/06 09:17:40;;;;;;;5.13;2.28;;;;;;;23.81;64.52;100866.31;10519011;28;20052;-77
2023/08/06 09:22:44;;;;;;;2.15;1.95;;;;;;;25.79;59.38;100858.13;10490437;28;20523;-77
2023/08/06 09:27:47;;;;;;;3.05;2.05;;;;;;;27.29;54.93;100866.38;10504711;28;20049;-76
2023/08/06 09:32:51;;;;;;;2.25;2.05;;;;;;;26.02;57.76;100855.22;10530157;28;20533;-77
2023/08/06 09:37:54;;;;;;;2.20;2.00;;;;;;;24.78;62.26;100853.16;10528118;28;20047;-77
2023/08/06 09:42:58;;;;;;;2.60;2.40;;;;;;;24.72;63.47;100852.66;10522935;28;20052;-77
2023/08/06 09:48:03;;;;;;;2.85;2.30;;;;;;;24.44;62.91;100855.69;10541287;28;20045;-78
2023/08/06 09:53:08;;;;;;;2.78;2.58;;;;;;;24.02;65.31;100844.38;10482744;28;20037;-76
2023/08/06 09:58:10;;;;;;;3.22;2.20;;;;;;;24.41;63.94;100838.81;10523344;28;20063;-77
2023/08/06 10:03:14;;;;;;;3.28;2.65;;;;;;;24.59;63.33;100846.38;10506958;28;20040;-73
2023/08/06 10:08:16;;;;;;;2.58;2.38;;;;;;;24.68;62.93;100843.34;10502967;28;20052;-74
2023/08/06 10:13:20;;;;;;;4.57;2.40;;;;;;;24.44;64.14;100829.63;10525392;28;20049;-74
2023/08/06 10:18:23;;;;;;;3.65;2.58;;;;;;;24.83;63.29;100817.19;10510107;28;20064;-74
2023/08/06 10:23:38;;;;;;;3.53;2.30;;;;;;;24.79;62.31;100816.28;10506762;28;20043;-75
2023/08/06 10:28:40;;;;;;;2.47;2.25;;;;;;;24.99;62.90;100819.03;10523625;28;20053;-73
2023/08/06 10:33:44;;;;;;;3.10;2.25;;;;;;;25.15;62.42;100819.75;10515681;28;20039;-77
2023/08/06 10:38:48;;;;;;;6.82;2.60;;;;;;;25.05;63.31;100826.81;10505115;28;20045;-74
2023/08/06 10:43:51;;;;;;;2.38;2.15;;;;;;;25.03;63.85;100819.94;10541236;28;20821;-74
2023/08/06 10:48:53;;;;;;;4.78;2.25;;;;;;;24.85;64.69;100828.84;10533445;28;20415;-75
2023/08/06 10:53:57;;;;;;;4.85;2.78;;;;;;;24.81;63.50;100825.13;10502392;28;20047;-74
2023/08/06 10:58:59;;;;;;;2.75;2.45;;;;;;;24.84;64.89;100821.59;10502483;28;20518;-74
2023/08/06 11:04:02;;;;;;;3.33;2.80;;;;;;;25.03;64.55;100823.56;10519348;28;20051;-73
2023/08/06 11:09:05;;;;;;;2.50;2.30;;;;;;;24.92;64.32;100809.31;10502908;28;20490;-74
2023/08/06 11:14:15;;;;;;;3.67;2.22;;;;;;;24.82;64.76;100812.75;10516766;28;20040;-73
2023/08/06 11:19:17;;;;;;;3.72;2.60;;;;;;;24.70;65.49;100812.91;10514441;28;20047;-75
2023/08/06 11:24:19;;;;;;;3.30;2.47;;;;;;;24.91;65.34;100804.06;10489058;28;20413;-76
2023/08/06 11:29:23;;;;;;;3.20;2.42;;;;;;;24.82;65.58;100809.09;10484596;28;20056;-75
2023/08/06 11:34:25;;;;;;;3.38;2.80;;;;;;;24.74;66.44;100810.19;10512026;28;20044;-75
2023/08/06 11:39:27;;;;;;;3.50;3.15;;;;;;;24.64;66.89;100820.00;10468420;28;20052;-75
2023/08/06 11:44:32;;;;;;;2.95;2.47;;;;;;;24.79;65.81;100810.66;10524003;28;20047;-75
2023/08/06 11:49:44;;;;;;;4.05;2.75;;;;;;;24.94;65.38;100812.53;10482175;28;20043;-76
2023/08/06 11:54:48;;;;;;;2.50;2.20;;;;;;;24.78;66.75;100833.50;10505457;28;20045;-75
2023/08/06 11:59:50;;;;;;;4.50;3.40;;;;;;;24.69;67.56;100802.06;10527207;28;20434;-75
2023/08/06 12:05:13;;;;;;;3.22;2.83;;;;;;;24.80;66.49;100798.25;10518788;28;20387;-75
2023/08/06 12:10:17;;;;;;;2.25;2.10;;;;;;;24.91;66.48;100798.44;10516166;28;20414;-78
2023/08/06 12:15:20;;;;;;;3.95;3.03;;;;;;;24.85;66.97;100797.97;10521840;28;20052;-76
2023/08/06 12:20:22;;;;;;;4.18;3.53;;;;;;;24.76;67.62;100811.41;10539252;28;20048;-76
2023/08/06 12:25:24;;;;;;;3.42;3.00;;;;;;;24.79;67.95;100809.84;10526803;28;20042;-76
2023/08/06 12:30:28;;;;;;;3.97;3.55;;;;;;;24.60;68.54;100813.53;10501828;28;20055;-75
2023/08/06 12:35:30;;;;;;;3.17;2.88;;;;;;;24.58;68.71;100801.88;10531167;28;20525;-76
2023/08/06 12:40:33;;;;;;;3.90;2.47;;;;;;;24.60;68.69;100791.06;10513674;28;20423;-76
2023/08/06 12:45:35;;;;;;;4.68;4.28;;;;;;;24.66;69.21;100781.19;10505248;28;20052;-76
2023/08/06 12:50:37;;;;;;;3.70;3.13;;;;;;;24.77;68.40;100781.34;10510543;28;20064;-76
2023/08/06 12:55:40;;;;;;;4.22;3.55;;;;;;;24.60;69.98;100771.44;10524281;28;20162;-75
2023/08/06 13:00:42;;;;;;;3.97;3.50;;;;;;;24.76;69.21;100772.13;10533249;28;20048;-76
2023/08/06 13:05:45;;;;;;;3.28;2.97;;;;;;;24.72;70.29;100765.66;10537173;28;20052;-76
2023/08/06 13:10:47;;;;;;;4.43;3.50;;;;;;;24.53;69.88;100765.72;10537009;28;20063;-76
2023/08/06 13:15:50;;;;;;;4.10;3.70;;;;;;;24.30;71.19;100758.09;10556824;28;20248;-75
2023/08/06 13:20:54;;;;;;;3.95;3.33;;;;;;;24.52;70.71;100762.09;10536362;28;20478;-76
2023/08/06 13:25:56;;;;;;;4.32;3.80;;;;;;;24.57;70.43;100775.81;10536773;28;20048;-75
2023/08/06 13:30:58;;;;;;;3.80;2.70;;;;;;;24.43;70.60;100752.28;10529294;28;20048;-75
2023/08/06 13:36:01;;;;;;;3.30;2.42;;;;;;;24.54;70.32;100742.88;10527539;28;20450;-75
2023/08/06 13:41:03;;;;;;;4.10;3.70;;;;;;;24.71;70.51;100752.81;10511745;28;20044;-75
2023/08/06 13:46:05;;;;;;;4.20;3.53;;;;;;;24.58;70.86;100754.97;10518419;28;20055;-75
2023/08/06 13:51:08;;;;;;;4.95;3.22;;;;;;;24.57;69.95;100752.53;10529422;28;20052;-75
2023/08/06 13:56:11;;;;;;;6.03;3.20;;;;;;;24.54;70.42;100737.28;10531325;28;20434;-75
2023/08/06 14:01:13;;;;;;;4.03;3.50;;;;;;;24.79;69.73;100737.69;10527657;28;20051;-75
2023/08/06 14:06:15;;;;;;;4.88;3.63;;;;;;;24.81;70.35;100746.53;10506282;28;20052;-75
2023/08/06 14:11:17;;;;;;;4.00;3.33;;;;;;;24.76;70.58;100735.66;10523112;28;20045;-75
2023/08/06 14:16:20;;;;;;;5.22;4.00;;;;;;;24.81;70.14;100738.13;10513785;28;20514;-74
2023/08/06 14:21:22;;;;;;;4.82;3.88;;;;;;;24.80;70.51;100735.69;10526548;28;20525;-77
2023/08/06 14:26:24;;;;;;;4.40;4.00;;;;;;;24.80;71.03;100722.47;10517935;28;20055;-75
2023/08/06 14:31:26;;;;;;;3.17;2.58;;;;;;;24.73;70.30;100724.38;10526545;28;20041;-75
2023/08/06 14:36:28;;;;;;;2.65;2.45;;;;;;;24.74;70.93;100729.59;10530339;28;20059;-75
2023/08/06 14:41:30;;;;;;;4.00;3.53;;;;;;;24.80;70.83;100714.06;10503856;28;20040;-75
2023/08/06 14:46:33;;;;;;;4.53;3.75;;;;;;;24.73;70.65;100719.56;10524126;28;20051;-75
2023/08/06 14:51:35;;;;;;;4.28;2.97;;;;;;;24.71;70.66;100724.75;10524493;28;20036;-75
2023/08/06 14:56:37;;;;;;;3.97;3.60;;;;;;;24.78;70.17;100732.47;10517495;28;20049;-75
2023/08/06 15:01:40;;;;;;;3.70;2.83;;;;;;;24.79;69.86;100714.44;10483277;28;20403;-75
2023/08/06 15:06:42;;;;;;;3.28;2.97;;;;;;;24.70;70.47;100720.31;10523490;28;20049;-75
2023/08/06 15:11:44;;;;;;;3.55;2.95;;;;;;;24.68;70.36;100705.03;10518022;28;20414;-75
2023/08/06 15:16:48;;;;;;;6.43;3.67;;;;;;;24.61;71.38;100706.53;10521466;28;20052;-75
2023/08/06 15:21:50;;;;;;;4.22;3.83;;;;;;;24.41;71.21;100713.38;10523686;28;20044;-75
2023/08/06 15:26:52;;;;;;;5.30;3.30;;;;;;;24.37;71.69;100717.31;10527280;28;20041;-76
2023/08/06 15:31:54;;;;;;;3.67;2.95;;;;;;;24.29;71.66;100711.56;10519951;28;20051;-76
2023/08/06 15:36:57;;;;;;;5.00;3.88;;;;;;;24.16;71.86;100704.50;10518226;28;20040;-76
2023/08/06 15:41:59;;;;;;;3.20;2.90;;;;;;;24.06;71.96;100705.91;10511643;28;20518;-75
2023/08/06 15:47:01;;;;;;;4.82;3.60;;;;;;;23.94;73.54;100710.84;10508396;28;20036;-76
2023/08/06 15:52:04;;;;;;;5.32;4.10;;;;;;;23.92;73.47;100713.22;10482597;28;20047;-75
2023/08/06 15:57:07;;;;;;;8.25;3.30;;;;;;;23.95;73.19;100704.06;10488295;28;20056;-75
2023/08/06 16:02:09;;;;;;;5.20;4.10;;;;;;;23.91;73.23;100705.97;10487045;28;20531;-75
2023/08/06 16:07:11;;;;;;;6.50;3.67;;;;;;;24.06;72.96;100696.69;10526900;28;20518;-75
2023/08/06 16:12:14;;;;;;;6.03;3.95;;;;;;;24.11;73.19;100696.38;10513096;28;20049;-75
2023/08/06 16:17:17;;;;;;;4.72;3.33;;;;;;;24.00;73.51;100690.56;10464937;28;20052;-75
2023/08/06 16:22:19;;;;;;;4.95;3.47;;;;;;;24.03;73.88;100683.41;10485033;28;20036;-75
2023/08/06 16:27:21;;;;;;;5.57;3.88;;;;;;;23.92;75.12;100683.19;10514644;28;20044;-75
2023/08/06 16:32:23;;;;;;;7.88;4.63;;;;;;;23.99;75.47;100680.53;10512404;28;20411;-75
2023/08/06 16:37:27;;;;;;;7.00;3.55;;;;;;;23.93;75.42;100678.38;10503093;28;20041;-75
2023/08/06 16:42:29;;;;;;;8.23;3.80;;;;;;;23.93;76.06;100678.38;10503273;28;20044;-75
2023/08/06 16:47:31;;;;;;;6.80;4.55;;;;;;;23.82;76.01;100677.38;10526358;28;20530;-75
2023/08/06 16:52:33;;;;;;;6.50;4.22;;;;;;;23.85;76.51;100693.47;10525105;28;20055;-74
2023/08/06 16:57:36;;;;;;;7.22;4.55;;;;;;;23.85;75.73;100691.47;10519425;28;20053;-75
2023/08/06 17:02:38;;;;;;;9.32;5.80;;;;;;;23.73;77.45;100684.00;10525187;28;20037;-74
2023/08/06 17:07:43;;;;;;;6.97;4.60;;;;;;;23.71;76.71;100680.78;10533094;28;20498;-75
2023/08/06 17:12:46;;;;;;;8.65;5.30;;;;;;;23.72;77.34;100679.59;10532167;28;20036;-75
2023/08/06 17:17:48;;;;;;;7.63;4.53;;;;;;;23.63;77.32;100667.81;10529344;28;20044;-74
2023/08/06 17:22:51;;;;;;;7.25;4.18;;;;;;;23.61;77.71;100672.97;10523113;28;20048;-75
2023/08/06 17:27:53;;;;;;;4.68;3.58;;;;;;;23.39;77.87;100663.25;10531583;28;20040;-74
2023/08/06 17:32:55;;;;;;;4.93;3.80;;;;;;;23.33;78.68;100666.72;10532141;28;20091;-75
2023/08/06 17:37:59;;;;;;;8.18;3.75;;;;;;;23.17;78.18;100673.19;10532112;28;20044;-74
2023/08/06 17:43:02;;;;;;;5.35;3.50;;;;;;;23.04;80.05;100665.28;10528735;28;20048;-75
2023/08/06 17:48:04;;;;;;;5.32;3.53;;;;;;;22.97;79.09;100677.13;10531875;28;20033;-75
2023/08/06 17:53:06;;;;;;;6.70;3.40;;;;;;;22.78;80.17;100672.25;10530699;28;20040;-74
2023/08/06 17:58:09;;;;;;;9.07;3.45;;;;;;;22.72;81.26;100673.69;10528818;28;20074;-73
2023/08/06 18:03:12;;;;;;;5.90;3.60;;;;;;;22.65;80.76;100664.31;10525675;28;20060;-73
2023/08/06 18:08:14;;;;;;;6.50;3.95;;;;;;;22.63;81.51;100675.88;10502583;28;20047;-73
2023/08/06 18:13:16;;;;;;;4.97;3.00;;;;;;;22.54;81.84;100678.03;10529772;28;20048;-73
2023/08/06 18:18:18;;;;;;;3.53;2.55;;;;;;;22.48;82.92;100679.47;10496980;28;20040;-73
2023/08/06 18:23:22;;;;;;;5.68;3.33;;;;;;;22.45;82.76;100672.63;10507258;28;20051;-73
2023/08/06 18:28:24;;;;;;;5.38;4.13;;;;;;;22.34;83.12;100677.13;10506769;28;20032;-73
2023/08/06 18:33:27;;;;;;;2.00;1.50;;;;;;;22.30;84.10;100681.00;10509195;28;20044;-73
2023/08/06 18:38:30;;;;;;;6.05;3.28;;;;;;;22.22;84.57;100671.63;10509782;28;20064;-73
2023/08/06 18:43:32;;;;;;;4.03;2.75;;;;;;;22.23;84.38;100676.03;10530115;28;20048;-73
2023/08/06 18:48:35;;;;;;;5.15;3.60;;;;;;;22.20;84.87;100673.94;10527462;28;20055;-74
2023/08/06 18:53:38;;;;;;;7.72;3.85;;;;;;;22.19;84.38;100659.16;10508508;28;20055;-76
2023/08/06 18:58:40;;;;;;;3.90;3.10;;;;;;;22.24;84.34;100641.31;10521214;28;20052;-77
2023/08/06 19:03:43;;;;;;;4.75;3.30;;;;;;;22.32;84.22;100662.69;10481277;28;20052;-77
2023/08/06 19:08:46;;;;;;;5.03;3.45;;;;;;;22.44;84.49;100654.22;10496805;28;20044;-79
2023/08/06 19:13:48;;;;;;;4.65;3.75;;;;;;;22.58;84.06;100655.75;10501101;28;20403;-78
2023/08/06 19:18:50;;;;;;;7.22;3.88;;;;;;;22.58;83.75;100648.19;10494705;28;20044;-78
2023/08/06 19:23:59;;;;;;;7.32;4.13;;;;;;;22.56;84.30;100637.34;10507736;28;20057;-78
2023/08/06 19:29:04;;;;;;;5.25;4.05;;;;;;;22.86;83.87;100653.66;10507956;28;20345;-78
2023/08/06 19:34:08;;;;;;;7.95;3.42;;;;;;;22.93;83.60;100637.06;10491589;28;20045;-82
2023/08/06 19:39:10;;;;;;;7.93;4.15;;;;;;;22.84;83.85;100623.25;10509380;28;20048;-82
2023/08/06 19:44:14;;;;;;;8.57;5.22;;;;;;;22.83;83.89;100627.22;10489226;28;20042;-81
2023/08/06 19:49:17;;;;;;;11.13;4.97;;;;;;;22.80;84.25;100627.94;10504983;28;20044;-74
2023/08/06 19:54:19;;;;;;;6.13;4.00;;;;;;;22.82;85.27;100630.38;10523996;28;20047;-74
2023/08/06 19:59:22;;;;;;;6.18;4.25;;;;;;;22.85;84.60;100626.84;10519216;28;20049;-76
2023/08/06 20:04:24;;;;;;;5.57;4.88;;;;;;;22.91;85.08;100628.22;10527663;28;20060;-75
2023/08/06 20:09:27;;;;;;;8.25;5.05;;;;;;;22.92;85.13;100629.84;10544443;28;20060;-76
2023/08/06 20:14:29;;;;;;;5.25;4.22;;;;;;;23.01;86.05;100627.63;10553402;28;20131;-76
2023/08/06 20:19:32;;;;;;;5.28;4.40;;;;;;;23.04;85.90;100626.09;10523010;28;20052;-75
2023/08/06 20:24:34;;;;;;;4.45;3.63;;;;;;;23.03;85.67;100616.88;10514601;28;20698;-75
2023/08/06 20:29:42;;;;;;;8.85;5.28;;;;;;;23.11;86.10;100604.69;10525806;28;20048;-74
2023/08/06 20:34:44;;;;;;;7.13;5.13;;;;;;;23.07;85.91;100612.16;10506769;28;20048;-75
2023/08/06 20:39:47;;;;;;;4.63;4.13;;;;;;;23.10;86.41;100607.84;10529419;28;20044;-75
2023/08/06 20:44:49;;;;;;;5.57;4.80;;;;;;;23.16;87.50;100600.78;10534585;28;20044;-74
2023/08/06 20:49:51;;;;;;;7.95;5.32;;;;;;;23.11;87.44;100596.28;10535175;28;20045;-77
2023/08/06 20:54:54;;;;;;;8.15;5.13;;;;;;;23.09;87.40;100595.84;10516375;28;20127;-81
2023/08/06 20:59:56;;;;;;;8.68;6.32;;;;;;;23.10;88.56;100591.88;10515873;28;20049;-75
2023/08/06 21:04:58;;;;;;;4.88;3.75;;;;;;;23.03;88.20;100590.88;10533943;28;20040;-74
2023/08/06 21:10:01;;;;;;;7.57;6.53;;;;;;;22.96;89.23;100590.75;10521198;28;20036;-75
2023/08/06 21:15:05;;;;;;;8.40;6.18;;;;;;;22.87;89.99;100576.94;10514539;28;20048;-75
2023/08/06 21:20:09;;;;;;;9.73;5.05;;;;;;;22.83;90.34;100576.06;10535962;28;20037;-75
2023/08/06 21:25:11;;;;;;;8.07;6.80;;;;;;;22.85;90.27;100579.28;10530660;28;20036;-75
2023/08/06 21:30:14;;;;;;;7.13;6.05;;;;;;;22.73;91.32;100576.56;10502165;28;20063;-75
2023/08/06 21:35:16;;;;;;;8.68;5.90;;;;;;;22.69;91.42;100564.50;10518899;28;20348;-77
2023/08/06 21:40:19;;;;;;;9.75;5.78;;;;;;;22.74;91.79;100562.25;10510954;28;20036;-75
2023/08/06 21:45:21;;;;;;;8.25;7.05;;;;;;;22.67;92.67;100570.47;10530329;28;20058;-75
2023/08/06 21:50:23;;;;;;;7.22;6.13;;;;;;;22.62;92.00;100565.16;10508337;28;20048;-77
2023/08/06 21:55:29;;;;;;;7.88;5.47;;;;;;;22.64;93.50;100559.19;10531027;28;20048;-76
2023/08/06 22:00:33;;;;;;;8.02;6.93;;;;;;;22.67;93.57;100562.06;10529427;28;20380;-76
2023/08/06 22:05:35;;;;;;;12.00;5.93;;;;;;;22.70;92.06;100554.94;10525495;28;20059;-75
2023/08/06 22:10:38;;;;;;;10.02;7.07;;;;;;;22.72;93.17;100569.38;10526770;28;20067;-76
2023/08/06 22:15:40;;;;;;;8.00;5.50;;;;;;;22.69;93.13;100572.91;10512697;28;20387;-75
2023/08/06 22:20:43;;;;;;;9.23;6.18;;;;;;;22.78;92.47;100562.31;10510214;28;20044;-80
2023/08/06 22:25:46;;;;;;;8.95;6.80;;;;;;;22.71;94.28;100562.97;10528043;28;20056;-75
2023/08/06 22:30:49;;;;;;;7.20;5.53;;;;;;;22.73;93.09;100562.59;10499056;28;20047;-73
2023/08/06 22:35:56;;;;;;;11.32;6.30;;;;;;;22.80;93.55;100559.97;10529301;28;20438;-74
2023/08/06 22:40:58;;;;;;;10.00;6.80;;;;;;;22.83;92.69;100545.28;10527586;28;20395;-75
2023/08/06 22:46:00;;;;;;;8.95;6.57;;;;;;;22.80;94.24;100557.19;10528891;28;20048;-72
2023/08/06 22:51:04;;;;;;;12.93;7.43;;;;;;;22.85;93.04;100543.72;10523716;28;20398;-72
2023/08/06 22:56:07;;;;;;;8.02;6.38;;;;;;;22.88;93.77;100549.75;10518956;28;20047;-72
2023/08/06 23:01:14;;;;;;;7.97;6.50;;;;;;;22.96;93.07;100540.38;10518015;28;20538;-73
2023/08/06 23:06:16;;;;;;;10.63;8.32;;;;;;;22.98;92.79;100527.63;10543307;28;20043;-73
2023/08/06 23:11:19;;;;;;;10.02;7.18;;;;;;;23.02;92.37;100527.69;10525623;28;20051;-73
2023/08/06 23:16:24;;;;;;;10.27;7.43;;;;;;;23.05;92.33;100533.34;10533269;28;20414;-72